Time;durP1;ratioP1;P1;durP2;ratioP2;P2;SDS_P1;SDS_P2;PMS_P1;PMS_P2;Temp;Humidity;BMP_temperature;BMP_pressure;BME280_temperature;BME280_humidity;BME280_pressure;Samples;Min_cycle;Max_cycle;Signal;HPM_P1;HPM_P2
2022/01/05 00:01:11;;;;;;;13.05;1.35;;;;;;;1.03;100.00;99664.25;4909594;28;20062;-73
2022/01/05 00:03:37;;;;;;;10.75;1.77;;;;;;;0.96;100.00;99658.84;4923085;28;20138;-72
2022/01/05 00:06:03;;;;;;;10.48;1.70;;;;;;;0.92;100.00;99658.38;4924322;28;20057;-72
2022/01/05 00:08:29;;;;;;;17.92;2.45;;;;;;;0.96;100.00;99653.53;4906132;28;20518;-73
2022/01/05 00:10:55;;;;;;;10.32;1.55;;;;;;;0.90;100.00;99654.25;4921980;28;20050;-72
2022/01/05 00:13:20;;;;;;;10.10;1.65;;;;;;;0.88;100.00;99658.94;4908776;28;20054;-72
2022/01/05 00:15:45;;;;;;;10.10;1.92;;;;;;;0.93;100.00;99654.72;4924741;28;22799;-73
2022/01/05 00:18:11;;;;;;;21.48;2.60;;;;;;;0.91;100.00;99654.09;4925179;28;20035;-73
2022/01/05 00:20:37;;;;;;;15.82;2.47;;;;;;;0.84;100.00;99645.22;4908071;28;20058;-73
2022/01/05 00:23:02;;;;;;;19.65;2.45;;;;;;;0.90;100.00;99660.38;4921674;28;20035;-72
2022/01/05 00:25:27;;;;;;;14.88;2.05;;;;;;;0.99;100.00;99650.53;4907706;28;20514;-72
2022/01/05 00:27:53;;;;;;;12.40;1.67;;;;;;;0.94;100.00;99650.25;4925276;28;20046;-72
2022/01/05 00:30:18;;;;;;;11.63;1.70;;;;;;;0.97;100.00;99639.28;4920966;28;20570;-74
2022/01/05 00:32:44;;;;;;;17.95;2.28;;;;;;;1.02;100.00;99636.94;4906843;28;20218;-72
2022/01/05 00:35:09;;;;;;;15.15;1.92;;;;;;;0.97;100.00;99628.66;4921291;28;20042;-72
2022/01/05 00:37:35;;;;;;;12.55;2.17;;;;;;;0.96;100.00;99632.34;4890435;28;20051;-72
2022/01/05 00:40:00;;;;;;;12.20;2.38;;;;;;;0.95;100.00;99636.00;4921795;28;20058;-72
2022/01/05 00:42:26;;;;;;;14.88;2.25;;;;;;;0.98;100.00;99630.31;4923567;28;20049;-72
2022/01/05 00:44:51;;;;;;;23.70;2.45;;;;;;;0.99;100.00;99623.19;4907675;28;20086;-71
2022/01/05 00:47:17;;;;;;;21.08;2.40;;;;;;;0.96;100.00;99627.03;4924345;28;20057;-71
2022/01/05 00:49:42;;;;;;;16.65;2.75;;;;;;;1.07;100.00;99623.94;4907651;28;20074;-71
2022/01/05 00:52:08;;;;;;;16.45;2.55;;;;;;;1.07;100.00;99629.25;4922915;28;20039;-71
2022/01/05 00:54:34;;;;;;;13.48;2.00;;;;;;;1.10;100.00;99623.56;4924368;28;20046;-71
2022/01/05 00:56:59;;;;;;;17.02;2.20;;;;;;;1.17;100.00;99629.78;4912695;28;20069;-71
2022/01/05 00:59:25;;;;;;;18.08;1.92;;;;;;;1.14;100.00;99624.84;4924039;28;20781;-71
2022/01/05 01:01:50;;;;;;;22.98;2.55;;;;;;;1.19;100.00;99627.81;4908455;28;20054;-71
2022/01/05 01:04:16;;;;;;;19.73;2.50;;;;;;;1.23;100.00;99622.09;4906593;28;20031;-71
2022/01/05 01:06:41;;;;;;;22.25;2.47;;;;;;;1.30;100.00;99638.94;4922935;28;20069;-71
2022/01/05 01:09:08;;;;;;;20.67;3.30;;;;;;;1.30;100.00;99629.19;4910495;28;20083;-70
2022/01/05 01:11:33;;;;;;;23.30;2.55;;;;;;;1.36;100.00;99627.59;4921954;28;20027;-71
2022/01/05 01:13:59;;;;;;;14.02;2.25;;;;;;;1.36;100.00;99622.31;4907578;28;20066;-71
2022/01/05 01:16:24;;;;;;;23.55;3.10;;;;;;;1.36;100.00;99622.31;4922579;28;20150;-71
2022/01/05 01:18:50;;;;;;;14.00;2.45;;;;;;;1.39;100.00;99616.63;4903561;28;20121;-71
2022/01/05 01:21:16;;;;;;;16.48;2.95;;;;;;;1.39;100.00;99625.41;4894487;28;20056;-71
2022/01/05 01:23:52;;;;;;;19.92;2.97;;;;;;;1.39;100.00;99611.31;4924769;28;20027;-71
2022/01/05 01:26:18;;;;;;;14.65;2.75;;;;;;;1.50;100.00;99612.69;4908898;28;20050;-71
2022/01/05 01:28:43;;;;;;;17.90;2.72;;;;;;;1.48;100.00;99604.94;4923076;28;20031;-71
2022/01/05 01:31:09;;;;;;;20.50;2.45;;;;;;;1.44;100.00;99608.97;4918521;28;20034;-71
2022/01/05 01:33:34;;;;;;;20.65;2.42;;;;;;;1.37;100.00;99608.03;4917326;28;20058;-71
2022/01/05 01:36:00;;;;;;;16.58;2.65;;;;;;;1.39;100.00;99600.72;4927435;28;20583;-71
2022/01/05 01:38:25;;;;;;;20.45;2.58;;;;;;;1.42;100.00;99597.69;4911872;28;20669;-71
2022/01/05 01:40:50;;;;;;;23.02;3.20;;;;;;;1.47;100.00;99602.44;4927835;28;20667;-71
2022/01/05 01:43:16;;;;;;;22.35;3.00;;;;;;;1.51;100.00;99603.72;4918589;28;20057;-71
2022/01/05 01:45:42;;;;;;;24.48;3.00;;;;;;;1.55;100.00;99605.00;4917132;28;20129;-71
2022/01/05 01:48:08;;;;;;;18.15;2.20;;;;;;;1.52;100.00;99600.88;4927801;28;20054;-71
2022/01/05 01:50:33;;;;;;;20.05;3.53;;;;;;;1.59;100.00;99607.09;4910586;28;20054;-71
2022/01/05 01:52:59;;;;;;;18.33;2.88;;;;;;;1.57;100.00;99609.09;4928484;28;20077;-71
2022/01/05 01:55:24;;;;;;;18.40;2.42;;;;;;;1.52;100.00;99606.19;4921461;28;20124;-70
2022/01/05 01:57:50;;;;;;;17.88;2.47;;;;;;;1.45;100.00;99604.47;4918754;28;20054;-71
2022/01/05 02:00:16;;;;;;;22.92;3.38;;;;;;;1.47;100.00;99605.09;4924990;28;21026;-71
2022/01/05 02:02:44;;;;;;;17.90;2.58;;;;;;;1.46;100.00;99601.63;4911704;28;20082;-72
2022/01/05 02:05:09;;;;;;;19.08;2.85;;;;;;;1.54;100.00;99604.16;4922721;28;20261;-71
2022/01/05 02:07:35;;;;;;;22.73;3.13;;;;;;;1.58;100.00;99601.97;4924052;28;20070;-71
2022/01/05 02:10:03;;;;;;;11.95;2.72;;;;;;;1.55;100.00;99600.53;4918977;28;20164;-72
2022/01/05 02:12:29;;;;;;;27.55;3.75;;;;;;;1.53;100.00;99602.53;4928691;28;22790;-71
2022/01/05 02:14:54;;;;;;;22.55;3.15;;;;;;;1.54;100.00;99593.56;4928045;28;20062;-70
2022/01/05 02:17:23;;;;;;;20.30;3.20;;;;;;;1.52;100.00;99590.28;4929881;28;20041;-71
2022/01/05 02:19:49;;;;;;;19.65;2.72;;;;;;;1.52;100.00;99600.88;4915868;28;20057;-71
2022/01/05 02:22:15;;;;;;;20.25;2.30;;;;;;;1.49;100.00;99601.25;4923703;28;20067;-71
2022/01/05 02:24:46;;;;;;;14.75;2.60;;;;;;;1.49;100.00;99601.25;4925672;28;20422;-71
2022/01/05 02:27:11;;;;;;;21.65;2.88;;;;;;;1.48;100.00;99596.97;4912286;28;20063;-74
2022/01/05 02:29:37;;;;;;;16.52;2.40;;;;;;;1.37;100.00;99597.41;4938966;28;20075;-71
2022/01/05 02:32:03;;;;;;;17.77;2.50;;;;;;;1.31;100.00;99596.31;4911729;28;20455;-72
2022/01/05 02:34:28;;;;;;;22.10;3.40;;;;;;;1.29;100.00;99597.50;4926259;28;20123;-71
2022/01/05 02:36:54;;;;;;;12.30;2.72;;;;;;;1.30;100.00;99602.66;4922562;28;20040;-71
2022/01/05 02:39:19;;;;;;;22.67;3.10;;;;;;;1.35;100.00;99588.81;4909510;28;20051;-72
2022/01/05 02:41:45;;;;;;;16.52;2.83;;;;;;;1.32;100.00;99589.19;4925772;28;20627;-72
2022/01/05 02:44:10;;;;;;;21.55;3.05;;;;;;;1.36;100.00;99593.13;4907905;28;20089;-72
2022/01/05 02:46:35;;;;;;;23.88;3.50;;;;;;;1.40;100.00;99591.72;4922762;28;20102;-72
2022/01/05 02:49:03;;;;;;;18.20;3.20;;;;;;;1.44;100.00;99595.69;4922718;28;20552;-72
2022/01/05 02:51:28;;;;;;;20.23;3.92;;;;;;;1.47;100.00;99592.66;4910183;28;20047;-72
2022/01/05 02:53:54;;;;;;;26.98;2.83;;;;;;;1.52;100.00;99584.97;4925371;28;20113;-72
2022/01/05 02:56:19;;;;;;;19.75;2.85;;;;;;;1.69;100.00;99587.44;4908458;28;20062;-72
2022/01/05 02:58:45;;;;;;;20.73;2.88;;;;;;;1.70;100.00;99568.66;4925090;28;20042;-71
2022/01/05 03:01:10;;;;;;;24.02;3.17;;;;;;;1.73;100.00;99581.53;4919323;28;20545;-72
2022/01/05 03:03:36;;;;;;;25.90;3.25;;;;;;;1.76;100.00;99590.97;4911637;28;20053;-71
2022/01/05 03:06:01;;;;;;;27.98;3.22;;;;;;;1.74;100.00;99582.38;4921802;28;20034;-71
2022/01/05 03:08:27;;;;;;;20.48;3.17;;;;;;;1.68;100.00;99594.53;4907369;28;20058;-72
2022/01/05 03:10:53;;;;;;;21.00;3.80;;;;;;;1.62;100.00;99596.13;4924334;28;20117;-71
2022/01/05 03:13:19;;;;;;;24.55;2.83;;;;;;;1.66;100.00;99600.03;4921771;28;20034;-71
2022/01/05 03:15:45;;;;;;;17.70;2.85;;;;;;;1.72;100.00;99589.69;4912793;28;20137;-71
2022/01/05 03:18:10;;;;;;;20.73;3.03;;;;;;;1.78;100.00;99594.25;4925247;28;20054;-71
2022/01/05 03:20:36;;;;;;;22.02;2.85;;;;;;;1.86;100.00;99586.16;4908399;28;20054;-72
2022/01/05 03:23:03;;;;;;;26.08;4.05;;;;;;;1.97;100.00;99588.34;4925165;28;20078;-72
2022/01/05 03:25:29;;;;;;;26.73;2.95;;;;;;;2.08;100.00;99590.53;4917691;28;20065;-72
2022/01/05 03:27:55;;;;;;;30.05;3.72;;;;;;;2.14;100.00;99595.09;4915141;28;20043;-72
2022/01/05 03:30:23;;;;;;;21.40;3.42;;;;;;;2.21;100.00;99597.81;4922893;28;20028;-74
2022/01/05 03:35:45;;;;;;;21.38;3.10;;;;;;;2.49;100.00;99594.38;4920217;28;20052;-74
2022/01/05 03:38:12;;;;;;;15.85;2.50;;;;;;;2.59;100.00;99593.03;4908746;28;20053;-72
2022/01/05 03:40:37;;;;;;;19.70;3.38;;;;;;;2.63;100.00;99589.00;4906375;28;20054;-71
2022/01/05 03:43:05;;;;;;;20.70;3.90;;;;;;;2.71;100.00;99597.84;4921687;28;20035;-71
2022/01/05 03:45:31;;;;;;;20.67;3.35;;;;;;;2.70;100.00;99594.34;4907886;28;20173;-74
2022/01/05 03:47:56;;;;;;;15.65;2.88;;;;;;;2.79;100.00;99595.03;4907850;28;20033;-72
2022/01/05 03:50:21;;;;;;;17.02;3.28;;;;;;;2.85;100.00;99599.59;4904838;28;20055;-72
2022/01/05 03:52:47;;;;;;;28.33;3.80;;;;;;;2.88;100.00;99585.91;4923480;28;20035;-72
2022/01/05 03:55:12;;;;;;;24.63;3.17;;;;;;;2.88;100.00;99580.59;4920968;28;20042;-72
2022/01/05 03:57:38;;;;;;;15.95;2.90;;;;;;;2.80;100.00;99594.00;4910890;28;20046;-72
2022/01/05 04:00:04;;;;;;;18.45;2.92;;;;;;;2.70;100.00;99582.88;4923818;28;20853;-72
2022/01/05 04:02:30;;;;;;;20.45;3.45;;;;;;;2.56;100.00;99596.09;4910651;28;20062;-72
2022/01/05 04:04:56;;;;;;;20.30;3.15;;;;;;;2.53;100.00;99599.13;4925030;28;20077;-72
2022/01/05 04:07:21;;;;;;;17.70;3.17;;;;;;;2.47;100.00;99591.91;4919529;28;20034;-72
2022/01/05 04:09:47;;;;;;;22.98;3.35;;;;;;;2.43;100.00;99589.84;4913237;28;20082;-72
2022/01/05 04:12:13;;;;;;;17.00;2.88;;;;;;;2.40;100.00;99585.72;4923344;28;20042;-72
2022/01/05 04:14:38;;;;;;;18.50;2.90;;;;;;;2.51;100.00;99587.84;4907440;28;20065;-72
2022/01/05 04:17:04;;;;;;;19.65;3.22;;;;;;;2.62;100.00;99587.34;4926216;28;20042;-74
2022/01/05 04:19:31;;;;;;;19.35;2.92;;;;;;;2.68;100.00;99564.47;4919752;28;20027;-71
2022/01/05 04:21:56;;;;;;;24.70;2.58;;;;;;;2.93;100.00;99572.84;4914339;28;20047;-72
2022/01/05 04:24:21;;;;;;;26.00;3.33;;;;;;;3.10;100.00;99576.84;4925889;28;20142;-72
2022/01/05 04:26:48;;;;;;;11.85;2.42;;;;;;;3.28;100.00;99572.84;4910616;28;20051;-72
2022/01/05 04:29:13;;;;;;;19.45;2.50;;;;;;;3.29;100.00;99562.00;4920241;28;20050;-72
2022/01/05 04:31:38;;;;;;;11.77;2.45;;;;;;;3.28;100.00;99570.19;4917986;28;20043;-73
2022/01/05 04:34:04;;;;;;;16.63;2.55;;;;;;;3.20;100.00;99557.06;4915141;28;20130;-72
2022/01/05 04:36:29;;;;;;;22.58;3.33;;;;;;;3.08;100.00;99560.25;4924564;28;20031;-72
2022/01/05 04:38:55;;;;;;;10.38;2.08;;;;;;;2.97;100.00;99566.13;4908150;28;20431;-73
2022/01/05 04:41:21;;;;;;;12.27;1.95;;;;;;;2.97;100.00;99554.66;4924088;28;20046;-72
2022/01/05 04:43:46;;;;;;;15.80;2.42;;;;;;;2.90;100.00;99556.44;4916513;28;20129;-72
2022/01/05 04:46:12;;;;;;;27.85;3.58;;;;;;;2.86;100.00;99561.34;4929489;28;20057;-73
2022/01/05 04:48:37;;;;;;;15.40;2.70;;;;;;;2.84;100.00;99558.03;4922046;28;20169;-73
2022/01/05 04:51:03;;;;;;;20.15;2.60;;;;;;;2.90;100.00;99556.44;4889509;28;20055;-72
2022/01/05 04:53:29;;;;;;;14.85;2.38;;;;;;;2.81;100.00;99548.63;4923200;28;20026;-73
2022/01/05 04:55:54;;;;;;;15.18;3.00;;;;;;;2.79;100.00;99557.81;4918920;28;25772;-73
2022/01/05 04:58:20;;;;;;;16.15;2.28;;;;;;;2.75;100.00;99553.91;4916662;28;20055;-74
2022/01/05 05:00:45;;;;;;;15.90;3.50;;;;;;;2.72;100.00;99554.28;4925986;28;20205;-72
2022/01/05 05:03:12;;;;;;;21.83;2.75;;;;;;;2.74;100.00;99562.88;4894019;28;20634;-74
2022/01/05 05:05:38;;;;;;;18.98;2.55;;;;;;;2.62;100.00;99555.44;4927027;28;20034;-74
2022/01/05 05:08:03;;;;;;;19.48;2.90;;;;;;;2.67;100.00;99556.69;4920628;28;20125;-72
2022/01/05 05:10:29;;;;;;;16.90;2.65;;;;;;;2.67;100.00;99556.69;4916827;28;20075;-72
2022/01/05 05:12:54;;;;;;;19.13;2.70;;;;;;;2.66;100.00;99550.53;4925853;28;20035;-72
2022/01/05 05:15:19;;;;;;;18.35;2.45;;;;;;;2.73;100.00;99555.91;4911150;28;20051;-72
2022/01/05 05:17:45;;;;;;;19.67;2.28;;;;;;;2.74;100.00;99549.56;4926242;28;20035;-72
2022/01/05 05:20:11;;;;;;;18.33;3.17;;;;;;;2.80;100.00;99546.16;4921254;28;20046;-74
2022/01/05 05:22:37;;;;;;;22.35;2.45;;;;;;;2.79;100.00;99545.34;4915981;28;20166;-72
2022/01/05 05:25:03;;;;;;;19.27;2.55;;;;;;;2.83;100.00;99546.59;4922322;28;20038;-74
2022/01/05 05:27:29;;;;;;;13.63;2.50;;;;;;;2.87;100.00;99541.69;4911156;28;20991;-72
2022/01/05 05:29:55;;;;;;;18.25;2.67;;;;;;;2.88;100.00;99543.34;4926428;28;20070;-74
2022/01/05 05:32:20;;;;;;;18.60;3.15;;;;;;;2.87;100.00;99539.84;4922204;28;20038;-72
2022/01/05 05:34:45;;;;;;;21.80;3.40;;;;;;;2.96;100.00;99556.50;4918188;28;20502;-72
2022/01/05 05:37:11;;;;;;;18.23;3.08;;;;;;;3.04;100.00;99542.22;4928559;28;20031;-71
2022/01/05 05:39:36;;;;;;;19.73;2.92;;;;;;;3.15;100.00;99544.31;4913933;28;20062;-72
2022/01/05 05:42:02;;;;;;;27.85;3.30;;;;;;;3.21;100.00;99538.22;4927975;28;20058;-74
2022/01/05 05:44:28;;;;;;;24.52;3.25;;;;;;;3.25;100.00;99534.13;4923142;28;20146;-72
2022/01/05 05:46:53;;;;;;;18.35;2.70;;;;;;;3.35;100.00;99539.09;4918572;28;20108;-73
2022/01/05 05:49:18;;;;;;;16.15;2.30;;;;;;;3.39;100.00;99545.69;4922025;28;20501;-73
2022/01/05 05:51:44;;;;;;;26.25;3.40;;;;;;;3.39;100.00;99548.34;4890907;28;20377;-72
2022/01/05 05:54:09;;;;;;;34.08;4.03;;;;;;;3.33;100.00;99539.31;4925663;28;20039;-74
2022/01/05 05:56:35;;;;;;;16.00;2.50;;;;;;;3.24;100.00;99545.81;4918980;28;20051;-74
2022/01/05 05:59:00;;;;;;;16.88;2.65;;;;;;;3.06;100.00;99540.19;4913702;28;20522;-75
2022/01/05 06:01:27;;;;;;;27.30;3.40;;;;;;;3.00;100.00;99538.31;4927266;28;20113;-75
2022/01/05 06:03:53;;;;;;;17.77;3.30;;;;;;;2.96;100.00;99548.50;4892353;28;23950;-75
2022/01/05 06:06:18;;;;;;;16.33;2.72;;;;;;;2.87;100.00;99537.19;4927092;28;20039;-76
2022/01/05 06:08:44;;;;;;;18.92;3.72;;;;;;;2.85;100.00;99541.09;4908740;28;21026;-75
2022/01/05 06:11:09;;;;;;;24.60;3.58;;;;;;;2.79;100.00;99524.06;4925214;28;20074;-74
2022/01/05 06:13:34;;;;;;;19.10;3.05;;;;;;;2.88;100.00;99532.72;4925535;28;20043;-75
2022/01/05 06:16:00;;;;;;;22.95;3.13;;;;;;;2.91;100.00;99532.31;4912208;28;20050;-75
2022/01/05 06:18:25;;;;;;;21.52;3.08;;;;;;;2.98;100.00;99538.50;4926440;28;20031;-75
2022/01/05 06:20:51;;;;;;;23.33;3.63;;;;;;;3.00;100.00;99539.13;4911083;28;20149;-76
2022/01/05 06:23:16;;;;;;;20.90;3.00;;;;;;;3.04;100.00;99521.75;4926686;28;20034;-76
2022/01/05 06:25:42;;;;;;;20.00;3.00;;;;;;;3.08;100.00;99554.91;4925251;28;20053;-75
2022/01/05 06:28:11;;;;;;;21.27;2.38;;;;;;;3.02;100.00;99545.09;4911852;28;20054;-76
2022/01/05 06:30:38;;;;;;;12.98;2.10;;;;;;;2.96;100.00;99535.22;4927379;28;20035;-75
2022/01/05 06:33:04;;;;;;;19.73;3.05;;;;;;;2.99;100.00;99542.00;4908320;28;20039;-75
2022/01/05 06:35:29;;;;;;;13.07;2.33;;;;;;;2.97;100.00;99542.16;4925982;28;20027;-75
2022/01/05 06:37:55;;;;;;;15.70;2.65;;;;;;;3.01;100.00;99543.41;4925911;28;20047;-75
2022/01/05 06:40:20;;;;;;;23.95;2.90;;;;;;;3.01;100.00;99540.75;4907042;28;20051;-75
2022/01/05 06:42:46;;;;;;;17.33;2.90;;;;;;;3.03;100.00;99525.44;4926889;28;20133;-75
2022/01/05 06:45:11;;;;;;;24.92;2.35;;;;;;;3.07;100.00;99524.03;4910998;28;20137;-75
2022/01/05 06:47:37;;;;;;;16.80;2.95;;;;;;;3.14;100.00;99526.72;4924881;28;20160;-75
2022/01/05 06:50:03;;;;;;;20.30;2.83;;;;;;;3.21;100.00;99532.09;4924843;28;20707;-75
2022/01/05 06:52:28;;;;;;;21.83;2.70;;;;;;;3.25;100.00;99533.31;4911894;28;20069;-75
2022/01/05 06:54:54;;;;;;;21.85;3.63;;;;;;;3.34;100.00;99526.81;4921825;28;20078;-75
2022/01/05 06:57:19;;;;;;;25.45;3.03;;;;;;;3.34;100.00;99522.31;4912695;28;20537;-74
2022/01/05 06:59:45;;;;;;;25.80;3.47;;;;;;;3.43;100.00;99552.25;4924465;28;20035;-74
2022/01/05 07:02:10;;;;;;;26.88;2.92;;;;;;;3.43;100.00;99546.91;4923258;28;20485;-74
2022/01/05 07:04:35;;;;;;;18.92;2.85;;;;;;;3.49;100.00;99545.31;4912661;28;20051;-74
2022/01/05 07:07:01;;;;;;;22.02;3.20;;;;;;;3.54;100.00;99542.88;4920432;28;20035;-74
2022/01/05 07:09:27;;;;;;;23.50;2.92;;;;;;;3.57;100.00;99550.47;4908348;28;20387;-74
2022/01/05 07:11:52;;;;;;;20.23;2.22;;;;;;;3.57;100.00;99542.47;4926188;28;20035;-75
2022/01/05 07:14:17;;;;;;;19.35;2.88;;;;;;;3.61;100.00;99542.91;4920522;28;20043;-74
2022/01/05 07:16:43;;;;;;;16.33;2.53;;;;;;;3.61;100.00;99551.69;4912584;28;20126;-75
2022/01/05 07:19:08;;;;;;;30.13;2.95;;;;;;;3.62;100.00;99540.06;4923287;28;20039;-75
2022/01/05 07:21:35;;;;;;;10.75;2.30;;;;;;;3.59;100.00;99537.78;4908615;28;20058;-74
2022/01/05 07:24:01;;;;;;;12.15;2.15;;;;;;;3.65;100.00;99528.16;4921918;28;20645;-75
2022/01/05 07:26:27;;;;;;;20.33;2.13;;;;;;;3.61;100.00;99534.91;4915876;28;20101;-75
2022/01/05 07:28:53;;;;;;;12.98;1.73;;;;;;;3.54;100.00;99543.69;4914525;28;20058;-75
2022/01/05 07:31:19;;;;;;;12.90;1.88;;;;;;;3.52;100.00;99540.41;4924775;28;20034;-75
2022/01/05 07:33:45;;;;;;;11.63;2.20;;;;;;;3.52;100.00;99550.25;4906674;28;20061;-74
2022/01/05 07:36:10;;;;;;;16.17;2.28;;;;;;;3.55;100.00;99556.00;4923047;28;20049;-75
2022/01/05 07:38:35;;;;;;;16.15;1.80;;;;;;;3.56;100.00;99551.50;4917576;28;20051;-75
2022/01/05 07:41:01;;;;;;;19.08;2.10;;;;;;;3.54;100.00;99535.69;4913118;28;20059;-76
2022/01/05 07:43:26;;;;;;;14.80;1.88;;;;;;;3.56;100.00;99551.50;4924164;28;20581;-74
2022/01/05 07:45:53;;;;;;;17.98;2.30;;;;;;;3.57;100.00;99548.63;4891339;28;20102;-73
2022/01/05 07:48:19;;;;;;;11.85;1.95;;;;;;;3.65;100.00;99549.47;4925765;28;20151;-73
2022/01/05 07:50:44;;;;;;;12.25;2.10;;;;;;;3.64;100.00;99545.16;4916632;28;24716;-75
2022/01/05 07:53:10;;;;;;;14.20;1.90;;;;;;;3.58;100.00;99534.31;4917325;28;20085;-75
2022/01/05 07:55:37;;;;;;;23.60;3.58;;;;;;;3.57;100.00;99531.81;4924900;28;20034;-75
2022/01/05 07:58:03;;;;;;;15.98;2.35;;;;;;;3.51;100.00;99541.44;4908427;28;20085;-75
2022/01/05 08:00:28;;;;;;;18.67;2.63;;;;;;;3.48;100.00;99544.50;4920834;28;20035;-74
2022/01/05 08:02:53;;;;;;;19.17;2.80;;;;;;;3.50;100.00;99537.13;4897581;28;20523;-74
2022/01/05 08:05:19;;;;;;;20.02;2.30;;;;;;;3.46;100.00;99538.53;4913503;28;20055;-74
2022/01/05 08:07:45;;;;;;;16.05;2.17;;;;;;;3.52;100.00;99529.75;4919398;28;20138;-74
2022/01/05 08:10:11;;;;;;;16.25;2.65;;;;;;;3.69;100.00;99550.72;4910508;28;20051;-74
2022/01/05 08:12:36;;;;;;;27.98;3.22;;;;;;;3.87;100.00;99556.31;4931404;28;20039;-74
2022/01/05 08:15:02;;;;;;;22.48;3.33;;;;;;;4.05;100.00;99556.56;4926335;28;20062;-74
2022/01/05 08:17:27;;;;;;;14.02;1.85;;;;;;;4.07;100.00;99549.19;4935736;28;20057;-74
2022/01/05 08:19:53;;;;;;;14.43;2.00;;;;;;;4.06;100.00;99552.03;4939852;28;20027;-74
2022/01/05 08:22:18;;;;;;;16.13;2.67;;;;;;;3.92;100.00;99555.69;4924707;28;20251;-74
2022/01/05 08:24:44;;;;;;;15.85;1.70;;;;;;;3.85;100.00;99547.69;4922494;28;20763;-74
2022/01/05 08:27:09;;;;;;;16.25;2.45;;;;;;;3.79;100.00;99536.00;4933739;28;20050;-74
2022/01/05 08:29:35;;;;;;;16.58;2.03;;;;;;;3.83;100.00;99533.75;4919605;28;20055;-73
2022/01/05 08:32:02;;;;;;;18.88;2.33;;;;;;;3.90;100.00;99528.47;4926735;28;20049;-74
2022/01/05 08:34:31;;;;;;;16.52;2.22;;;;;;;3.97;100.00;99527.44;4907002;28;20086;-74
2022/01/05 08:36:57;;;;;;;16.55;2.88;;;;;;;4.00;100.00;99548.34;4924727;28;20128;-74
2022/01/05 08:39:23;;;;;;;17.60;2.05;;;;;;;3.99;100.00;99557.34;4906422;28;20053;-75
2022/01/05 08:41:50;;;;;;;17.38;2.55;;;;;;;4.06;100.00;99555.53;4924002;28;20043;-76
2022/01/05 08:44:16;;;;;;;17.33;2.17;;;;;;;4.10;100.00;99568.44;4924721;28;20042;-76
2022/01/05 08:46:41;;;;;;;18.35;2.70;;;;;;;4.11;100.00;99554.94;4910685;28;20078;-75
2022/01/05 08:49:06;;;;;;;18.08;2.28;;;;;;;4.19;100.00;99561.91;4924542;28;20038;-76
2022/01/05 08:51:32;;;;;;;18.45;2.90;;;;;;;4.22;100.00;99573.00;4909719;28;20046;-76
2022/01/05 08:53:58;;;;;;;23.40;2.45;;;;;;;4.35;100.00;99582.03;4924158;28;20118;-76
2022/01/05 08:56:25;;;;;;;19.20;2.95;;;;;;;4.32;100.00;99588.59;4925853;28;20834;-77
2022/01/05 08:58:51;;;;;;;16.70;3.20;;;;;;;4.39;100.00;99596.59;4914501;28;20085;-77
2022/01/05 09:01:17;;;;;;;21.02;3.05;;;;;;;4.45;100.00;99604.59;4909658;28;20050;-76
2022/01/05 09:03:43;;;;;;;28.08;2.78;;;;;;;4.45;100.00;99577.94;4912467;28;20047;-75
2022/01/05 09:06:08;;;;;;;24.85;3.53;;;;;;;4.53;100.00;99607.09;4925805;28;20680;-76
2022/01/05 09:08:34;;;;;;;22.70;3.45;;;;;;;4.57;100.00;99604.00;4928024;28;20035;-75
2022/01/05 09:11:00;;;;;;;27.27;4.32;;;;;;;4.59;100.00;99607.28;4912973;28;20061;-75
2022/01/05 09:13:25;;;;;;;29.88;4.22;;;;;;;4.59;100.00;99613.44;4925287;28;20035;-75
2022/01/05 09:15:51;;;;;;;31.27;4.22;;;;;;;4.68;100.00;99622.06;4910855;28;20065;-74
2022/01/05 09:18:17;;;;;;;29.65;3.75;;;;;;;4.69;100.00;99619.19;4926793;28;20039;-74
2022/01/05 09:20:43;;;;;;;29.83;4.25;;;;;;;4.74;100.00;99629.25;4927544;28;20061;-74
2022/01/05 09:23:08;;;;;;;30.92;4.15;;;;;;;4.76;100.00;99622.69;4912631;28;20078;-74
2022/01/05 09:25:33;;;;;;;26.55;4.03;;;;;;;4.79;100.00;99640.13;4925406;28;20081;-74
2022/01/05 09:27:59;;;;;;;30.80;3.95;;;;;;;4.77;100.00;99639.50;4910899;28;20058;-73
2022/01/05 09:30:26;;;;;;;23.90;4.05;;;;;;;4.75;100.00;99652.25;4925177;28;20028;-74
2022/01/05 09:32:52;;;;;;;30.08;3.53;;;;;;;4.76;100.00;99649.34;4924989;28;20041;-75
2022/01/05 09:35:21;;;;;;;17.73;3.65;;;;;;;5.11;100.00;99651.81;4897037;28;20418;-74
2022/01/05 09:43:06;;;;;;;19.67;2.67;;;;;;;5.83;100.00;99644.72;4925953;28;20368;-74
2022/01/05 09:45:34;;;;;;;17.25;3.67;;;;;;;6.04;100.00;99658.81;4918390;28;20083;-74
2022/01/05 09:48:18;;;;;;;20.13;4.15;;;;;;;6.21;100.00;99673.34;4915803;28;20050;-74
2022/01/05 09:50:55;;;;;;;23.50;4.53;;;;;;;6.31;100.00;99667.56;4925126;28;20039;-74
2022/01/05 09:53:23;;;;;;;25.88;5.35;;;;;;;6.45;100.00;99675.28;4890598;28;20047;-73
2022/01/05 09:55:51;;;;;;;28.88;5.07;;;;;;;6.62;100.00;99678.28;4926022;28;20058;-73
2022/01/05 09:58:19;;;;;;;23.40;4.13;;;;;;;6.83;100.00;99677.13;4893695;28;20094;-74
2022/01/05 10:01:05;;;;;;;31.02;4.75;;;;;;;7.01;100.00;99703.13;4925719;28;20046;-73
2022/01/05 10:03:31;;;;;;;19.08;3.05;;;;;;;7.14;100.00;99703.03;4920288;28;20672;-74
2022/01/05 10:05:56;;;;;;;28.75;5.07;;;;;;;7.22;100.00;99704.63;4915952;28;23648;-73
2022/01/05 10:08:22;;;;;;;18.92;3.30;;;;;;;7.35;100.00;99717.09;4926710;28;20731;-74
2022/01/05 10:10:48;;;;;;;25.63;6.13;;;;;;;7.01;100.00;99718.38;4912318;28;20069;-72
2022/01/05 10:13:15;;;;;;;33.80;5.10;;;;;;;7.16;100.00;99724.25;4929479;28;20038;-72
2022/01/05 10:15:41;;;;;;;30.58;6.15;;;;;;;7.28;100.00;99738.56;4905015;28;20046;-73
2022/01/05 10:18:15;;;;;;;33.40;7.50;;;;;;;7.64;100.00;99742.38;4920065;28;20057;-72
2022/01/05 10:20:54;;;;;;;42.08;10.23;;;;;;;7.92;100.00;99746.44;4928565;28;20114;-71
2022/01/05 10:23:35;;;;;;;26.63;8.88;;;;;;;8.08;100.00;99744.00;4909277;28;20078;-71
2022/01/05 10:26:21;;;;;;;23.10;5.47;;;;;;;8.25;100.00;99744.25;4925435;28;20129;-73
2022/01/05 10:28:47;;;;;;;26.85;5.38;;;;;;;8.33;100.00;99751.97;4911047;28;20051;-73
2022/01/05 10:31:27;;;;;;;41.58;10.23;;;;;;;8.53;100.00;99748.25;4922024;28;20574;-73
2022/01/05 10:33:53;;;;;;;25.25;4.10;;;;;;;8.94;100.00;99746.66;4910411;28;20166;-73
2022/01/05 10:36:19;;;;;;;21.05;4.60;;;;;;;8.90;100.00;99767.78;4922366;28;20230;-73
2022/01/05 10:38:57;;;;;;;34.25;5.13;;;;;;;8.99;100.00;99762.94;4925109;28;20178;-73
2022/01/05 10:41:27;;;;;;;19.08;3.60;;;;;;;9.00;100.00;99767.25;4907504;28;20502;-73
2022/01/05 10:44:16;;;;;;;34.50;4.72;;;;;;;9.04;100.00;99773.78;4926208;28;20121;-72
2022/01/05 10:46:50;;;;;;;17.55;3.40;;;;;;;8.91;100.00;99776.66;4909485;28;20467;-73
2022/01/05 10:49:22;;;;;;;;;;;;;;;8.92;100.00;99781.00;4926700;28;20041;-72
2022/01/05 10:51:48;;;;;;;19.50;3.78;;;;;;;9.12;100.00;99783.38;4934368;28;20362;-73
2022/01/05 10:54:16;;;;;;;23.55;4.05;;;;;;;9.02;100.00;99792.00;4916691;28;20062;-72
2022/01/05 10:56:42;;;;;;;25.20;4.82;;;;;;;9.06;100.00;99798.56;4923418;28;20050;-72
2022/01/05 10:59:08;;;;;;;16.10;3.45;;;;;;;9.19;100.00;99798.34;4911776;28;20050;-72
2022/01/05 11:01:34;;;;;;;20.73;3.85;;;;;;;8.90;100.00;99797.34;4925988;28;20741;-72
2022/01/05 11:04:21;;;;;;;26.70;4.30;;;;;;;8.79;100.00;99814.22;4911704;28;20079;-72
2022/01/05 11:06:57;;;;;;;27.88;4.90;;;;;;;9.39;100.00;99813.38;4923951;28;20035;-73
2022/01/05 11:09:22;;;;;;;22.58;4.70;;;;;;;9.59;100.00;99813.91;4933499;28;20121;-73
2022/01/05 11:11:49;;;;;;;27.08;5.28;;;;;;;9.36;100.00;99819.22;4914979;28;20059;-73
2022/01/05 11:14:16;;;;;;;26.13;4.43;;;;;;;9.03;100.00;99817.84;4924023;28;20035;-73
2022/01/05 11:16:47;;;;;;;24.67;5.05;;;;;;;9.20;100.00;99818.84;4916696;28;20683;-72
2022/01/05 11:19:19;;;;;;;31.63;5.28;;;;;;;9.09;100.00;99827.69;4933205;28;20668;-74
2022/01/05 11:22:04;;;;;;;23.75;4.10;;;;;;;9.18;100.00;99823.59;4917955;28;20846;-71
2022/01/05 11:24:33;;;;;;;27.02;5.00;;;;;;;9.39;100.00;99829.50;4924291;28;20062;-71
2022/01/05 11:26:59;;;;;;;22.67;4.82;;;;;;;9.64;100.00;99838.22;4939817;28;20872;-72
2022/01/05 11:29:25;;;;;;;31.35;6.68;;;;;;;9.55;100.00;99831.56;4910001;28;20594;-73